createdAt,value
2018-12-11T00:01:36.758Z,5.04
2018-12-11T00:04:06.403Z,4.97
2018-12-11T00:06:36.482Z,4.97
2018-12-11T00:09:07.017Z,4.84
2018-12-11T00:11:36.592Z,4.87
2018-12-11T00:14:06.360Z,4.86
2018-12-11T00:16:36.261Z,4.83
2018-12-11T00:19:06.247Z,4.87
2018-12-11T00:21:35.997Z,4.68
2018-12-11T00:24:05.754Z,4.57
2018-12-11T00:26:35.934Z,4.56
2018-12-11T00:29:05.475Z,4.36
2018-12-11T00:31:36.026Z,4.32
2018-12-11T00:34:05.695Z,4.31
2018-12-11T00:36:35.319Z,4.25
2018-12-11T00:39:06.224Z,4.16
2018-12-11T00:41:36.127Z,4.01
2018-12-11T00:44:05.856Z,3.87
2018-12-11T00:46:35.434Z,3.97
2018-12-11T00:49:05.143Z,4.07
2018-12-11T00:51:35.493Z,4.09
2018-12-11T00:54:05.289Z,4.14
2018-12-11T00:56:34.928Z,4.25
2018-12-11T00:59:04.972Z,4.30
2018-12-11T01:01:34.600Z,4.26
2018-12-11T01:04:04.511Z,4.12
2018-12-11T01:06:34.073Z,4.01
2018-12-11T01:09:03.766Z,3.90
2018-12-11T01:11:33.428Z,3.77
2018-12-11T01:14:03.457Z,3.64
2018-12-11T01:16:33.165Z,3.63
2018-12-11T01:19:02.668Z,3.49
2018-12-11T01:21:32.343Z,3.58
2018-12-11T01:24:01.914Z,3.49
2018-12-11T01:26:31.481Z,3.63
2018-12-11T01:29:01.253Z,3.64
2018-12-11T01:31:30.875Z,3.57
2018-12-11T01:34:00.720Z,3.58
2018-12-11T01:36:30.256Z,3.61
2018-12-11T01:39:00.145Z,3.41
2018-12-11T01:41:29.850Z,3.65
2018-12-11T01:43:59.486Z,3.47
2018-12-11T01:46:29.121Z,3.63
2018-12-11T01:48:59.034Z,3.63
2018-12-11T01:51:28.844Z,3.65
2018-12-11T01:53:58.465Z,3.56
2018-12-11T01:56:28.100Z,3.59
2018-12-11T01:58:57.984Z,3.64
2018-12-11T02:01:27.694Z,3.56
2018-12-11T02:03:57.426Z,3.55
2018-12-11T02:06:27.103Z,3.51
2018-12-11T02:08:57.190Z,3.45
2018-12-11T02:11:26.886Z,3.44
2018-12-11T02:13:56.635Z,3.26
2018-12-11T02:16:26.350Z,3.33
2018-12-11T02:18:56.210Z,3.21
2018-12-11T02:21:25.729Z,3.22
2018-12-11T02:23:55.289Z,3.18
2018-12-11T02:26:25.047Z,3.17
2018-12-11T02:28:54.868Z,3.23
2018-12-11T02:31:24.369Z,3.23
2018-12-11T02:33:54.102Z,3.40
2018-12-11T02:36:23.545Z,3.36
2018-12-11T02:38:53.337Z,3.37
2018-12-11T02:41:23.738Z,3.28
2018-12-11T02:43:53.497Z,3.43
2018-12-11T02:46:23.297Z,3.58
2018-12-11T02:48:53.189Z,3.53
2018-12-11T02:51:23.059Z,3.45
2018-12-11T02:53:52.852Z,3.46
2018-12-11T02:56:22.466Z,3.31
2018-12-11T02:58:52.358Z,3.32
2018-12-11T03:01:22.208Z,3.38
2018-12-11T03:03:52.094Z,3.26
2018-12-11T03:06:21.983Z,3.20
2018-12-11T03:08:51.564Z,3.15
2018-12-11T03:11:21.481Z,3.17
2018-12-11T03:13:51.138Z,3.10
2018-12-11T03:16:20.925Z,3.06
2018-12-11T03:18:50.845Z,3.01
2018-12-11T03:21:20.640Z,2.93
2018-12-11T03:23:50.786Z,3.05
2018-12-11T03:26:20.562Z,3.01
2018-12-11T03:28:50.394Z,3.02
2018-12-11T03:31:20.296Z,3.00
2018-12-11T03:33:49.888Z,3.14
2018-12-11T03:36:20.008Z,3.42
2018-12-11T03:38:51.315Z,3.36
2018-12-11T03:41:21.171Z,3.31
2018-12-11T03:43:50.604Z,3.13
2018-12-11T03:46:20.319Z,3.14
2018-12-11T03:48:50.321Z,3.04
2018-12-11T03:51:20.934Z,2.93
2018-12-11T03:53:50.767Z,2.93
2018-12-11T03:56:20.441Z,2.85
2018-12-11T03:58:50.086Z,2.72
2018-12-11T04:01:19.731Z,2.63
2018-12-11T04:03:49.454Z,2.58
2018-12-11T04:06:19.314Z,2.67
2018-12-11T04:08:49.131Z,2.47
2018-12-11T04:11:18.796Z,2.58
2018-12-11T04:13:48.540Z,2.66
2018-12-11T04:16:18.255Z,2.67
2018-12-11T04:18:47.917Z,2.75
2018-12-11T04:21:18.026Z,2.80
2018-12-11T04:23:47.580Z,2.76
2018-12-11T04:26:17.263Z,2.73
2018-12-11T04:28:46.700Z,2.59
2018-12-11T04:31:16.456Z,2.68
2018-12-11T04:33:46.149Z,2.74
2018-12-11T04:36:15.797Z,2.83
2018-12-11T04:38:45.475Z,2.99
2018-12-11T04:41:15.580Z,2.99
2018-12-11T04:43:45.810Z,2.98
2018-12-11T04:46:15.471Z,2.84
2018-12-11T04:48:45.112Z,2.71
2018-12-11T04:51:14.899Z,2.67
2018-12-11T04:53:44.886Z,2.63
2018-12-11T04:56:14.777Z,2.56
2018-12-11T04:58:44.384Z,2.58
2018-12-11T05:01:14.124Z,2.62
2018-12-11T05:03:43.699Z,2.82
2018-12-11T05:06:13.563Z,2.67
2018-12-11T05:08:43.107Z,2.77
2018-12-11T05:11:12.789Z,2.74
2018-12-11T05:13:42.451Z,2.68
2018-12-11T05:16:11.898Z,2.79
2018-12-11T05:18:41.654Z,2.76
2018-12-11T05:21:11.252Z,2.73
2018-12-11T05:23:40.920Z,2.81
2018-12-11T05:26:10.479Z,2.79
2018-12-11T05:28:40.034Z,2.88
2018-12-11T05:31:09.566Z,2.95
2018-12-11T05:33:39.346Z,2.99
2018-12-11T05:36:08.780Z,2.93
2018-12-11T05:38:38.506Z,2.98
2018-12-11T05:41:08.421Z,2.88
2018-12-11T05:43:38.247Z,2.87
2018-12-11T05:46:08.146Z,2.86
2018-12-11T05:48:38.031Z,2.83
2018-12-11T05:51:07.444Z,2.91
2018-12-11T05:53:36.786Z,1.43
2018-12-11T05:56:06.801Z,2.91
2018-12-11T05:58:36.553Z,2.99
2018-12-11T06:01:06.315Z,3.08
2018-12-11T06:03:35.949Z,3.13
2018-12-11T06:06:05.885Z,3.14
2018-12-11T06:08:35.615Z,3.24
2018-12-11T06:11:05.623Z,3.03
2018-12-11T06:13:35.295Z,3.31
2018-12-11T06:16:04.960Z,3.45
2018-12-11T06:18:34.641Z,3.84
2018-12-11T06:21:04.404Z,3.94
2018-12-11T06:23:34.134Z,4.05
2018-12-11T06:26:03.955Z,4.18
2018-12-11T06:28:33.757Z,4.23
2018-12-11T06:31:03.462Z,4.36
2018-12-11T06:33:33.723Z,4.51
2018-12-11T06:36:03.389Z,4.61
2018-12-11T06:38:32.821Z,4.70
2018-12-11T06:41:02.610Z,4.73
2018-12-11T06:43:32.274Z,4.82
2018-12-11T06:46:02.368Z,4.83
2018-12-11T06:48:32.103Z,4.89
2018-12-11T06:51:01.925Z,4.98
2018-12-11T06:53:31.628Z,5.01
2018-12-11T06:56:01.388Z,5.15
2018-12-11T06:58:31.172Z,5.14
2018-12-11T07:01:00.899Z,5.12
2018-12-11T07:03:30.766Z,5.20
2018-12-11T07:06:00.637Z,5.30
2018-12-11T07:08:30.174Z,5.24
2018-12-11T07:11:01.018Z,5.16
2018-12-11T07:13:30.623Z,5.21
2018-12-11T07:16:00.443Z,5.36
2018-12-11T07:18:30.202Z,5.39
2018-12-11T07:21:00.074Z,5.67
2018-12-11T07:23:29.583Z,8.47
2018-12-11T07:25:59.480Z,11.07
2018-12-11T07:28:29.466Z,12.64
2018-12-11T07:30:59.139Z,13.17
2018-12-11T07:33:28.938Z,14.16
2018-12-11T07:35:58.635Z,14.80
2018-12-11T07:38:28.690Z,14.96
2018-12-11T07:40:58.375Z,15.60
2018-12-11T07:43:28.286Z,16.21
2018-12-11T07:45:57.912Z,16.92
2018-12-11T07:48:27.518Z,16.43
2018-12-11T07:50:57.241Z,17.54
2018-12-11T07:53:27.645Z,17.32
2018-12-11T07:56:00.398Z,18.19
2018-12-11T07:58:29.501Z,18.61
2018-12-11T08:00:59.687Z,18.14
2018-12-11T08:03:29.458Z,18.92
2018-12-11T08:05:58.938Z,18.64
2018-12-11T08:08:28.910Z,18.25
2018-12-11T08:10:58.719Z,17.93
2018-12-11T08:13:28.498Z,18.51
2018-12-11T08:15:58.362Z,17.75
2018-12-11T08:18:28.468Z,17.97
2018-12-11T08:20:57.966Z,18.23
2018-12-11T08:23:27.700Z,18.26
2018-12-11T08:25:57.608Z,18.13
2018-12-11T08:28:27.749Z,18.08
2018-12-11T08:30:57.550Z,18.01
2018-12-11T08:33:27.279Z,17.21
2018-12-11T08:35:57.118Z,18.14
2018-12-11T08:38:27.386Z,18.13
2018-12-11T08:41:07.907Z,18.45
2018-12-11T08:43:37.740Z,18.29
2018-12-11T08:46:07.682Z,18.58
2018-12-11T08:48:37.322Z,18.71
2018-12-11T08:51:06.725Z,17.79
2018-12-11T08:53:36.288Z,18.43
2018-12-11T08:56:05.750Z,18.20
2018-12-11T08:58:35.113Z,18.01
2018-12-11T09:01:04.697Z,18.68
2018-12-11T09:03:34.043Z,18.11
2018-12-11T09:06:03.606Z,17.43
2018-12-11T09:08:33.009Z,18.08
2018-12-11T09:11:02.448Z,18.05
2018-12-11T09:13:31.808Z,16.98
2018-12-11T09:16:01.392Z,16.55
2018-12-11T09:18:30.844Z,14.44
2018-12-11T09:21:00.241Z,15.25
2018-12-11T09:23:29.899Z,15.87
2018-12-11T09:25:59.234Z,16.34
2018-12-11T09:28:28.650Z,16.89
2018-12-11T09:30:58.068Z,16.73
2018-12-11T09:33:27.604Z,16.98
2018-12-11T09:35:57.368Z,16.71
2018-12-11T09:38:26.796Z,16.82
2018-12-11T09:40:56.120Z,17.64
2018-12-11T09:43:25.760Z,17.26
2018-12-11T09:45:55.280Z,17.70
2018-12-11T09:48:24.872Z,17.00
2018-12-11T09:50:54.297Z,17.10
2018-12-11T09:53:23.885Z,17.16
2018-12-11T09:55:53.296Z,17.22
2018-12-11T09:58:22.733Z,16.71
2018-12-11T10:00:53.182Z,16.69
2018-12-11T10:03:22.609Z,17.30
2018-12-11T10:09:08.474Z,16.26
2018-12-11T10:11:39.173Z,16.44
2018-12-11T10:14:08.958Z,16.68
2018-12-11T10:16:38.183Z,16.78
2018-12-11T10:19:07.774Z,17.30
2018-12-11T10:21:37.276Z,16.82
2018-12-11T10:24:06.696Z,15.95
2018-12-11T10:26:36.297Z,15.75
2018-12-11T10:29:05.785Z,14.38
2018-12-11T10:31:35.201Z,13.96
2018-12-11T10:34:04.586Z,14.64
2018-12-11T10:36:34.196Z,13.58
2018-12-11T10:39:03.948Z,12.57
2018-12-11T10:41:33.431Z,13.51
2018-12-11T10:44:02.805Z,14.30
2018-12-11T10:46:33.914Z,15.34
2018-12-11T10:49:03.571Z,15.06
2018-12-11T10:51:33.196Z,14.56
2018-12-11T10:54:02.609Z,15.41
2018-12-11T10:56:32.207Z,14.95
2018-12-11T10:59:01.468Z,14.27
2018-12-11T11:01:33.263Z,14.06
2018-12-11T11:04:02.624Z,14.06
2018-12-11T11:06:32.165Z,14.05
2018-12-11T11:09:01.550Z,14.49
2018-12-11T11:11:31.112Z,14.82
2018-12-11T11:14:00.437Z,14.93
2018-12-11T11:16:29.822Z,14.67
2018-12-11T11:18:59.523Z,14.37
2018-12-11T11:21:28.759Z,13.97
2018-12-11T11:23:58.431Z,14.35
2018-12-11T11:26:27.963Z,14.10
2018-12-11T11:28:57.340Z,14.30
2018-12-11T11:31:26.711Z,14.82
2018-12-11T11:33:58.476Z,15.24
2018-12-11T11:36:27.909Z,15.03
2018-12-11T11:38:57.544Z,14.69
2018-12-11T11:41:26.876Z,12.85
2018-12-11T11:43:57.853Z,14.35
2018-12-11T11:46:27.720Z,14.20
2018-12-11T11:48:57.310Z,13.90
2018-12-11T11:51:26.640Z,13.47
2018-12-11T11:53:56.016Z,13.01
2018-12-11T11:56:25.696Z,13.26
2018-12-11T11:58:55.275Z,13.29
2018-12-11T12:01:24.620Z,12.71
2018-12-11T12:03:54.084Z,12.49
2018-12-11T12:06:23.788Z,12.11
2018-12-11T12:08:59.197Z,11.83
2018-12-11T12:11:26.833Z,12.00
2018-12-11T12:13:57.420Z,11.36
2018-12-11T12:16:27.054Z,10.99
2018-12-11T12:18:57.316Z,10.30
2018-12-11T12:21:27.864Z,9.89
2018-12-11T12:23:57.365Z,9.79
2018-12-11T12:26:28.390Z,10.02
2018-12-11T12:28:58.254Z,10.14
2018-12-11T12:31:27.973Z,10.07
2018-12-11T12:33:58.080Z,10.33
2018-12-11T12:36:27.675Z,10.89
2018-12-11T12:38:57.216Z,10.80
2018-12-11T12:41:26.755Z,10.40
2018-12-11T12:43:56.391Z,10.15
2018-12-11T12:46:26.227Z,9.65
2018-12-11T12:48:56.087Z,9.39
2018-12-11T12:51:25.549Z,9.09
2018-12-11T12:53:55.153Z,9.13
2018-12-11T12:56:28.658Z,8.85
2018-12-11T12:58:58.312Z,8.74
2018-12-11T13:01:27.758Z,8.54
2018-12-11T13:03:57.598Z,8.52
2018-12-11T13:06:27.749Z,8.61
2018-12-11T13:08:57.742Z,8.45
2018-12-11T13:11:27.470Z,8.47
2018-12-11T13:13:56.985Z,8.45
2018-12-11T13:16:26.582Z,8.44
2018-12-11T13:18:56.177Z,8.23
2018-12-11T13:21:26.010Z,8.38
2018-12-11T13:23:55.692Z,8.18
2018-12-11T13:26:25.429Z,8.27
2018-12-11T13:28:54.966Z,8.25
2018-12-11T13:31:24.677Z,8.17
2018-12-11T13:33:54.175Z,8.20
2018-12-11T13:36:23.948Z,8.10
2018-12-11T13:38:54.081Z,8.00
2018-12-11T13:41:23.672Z,7.71
2018-12-11T13:43:53.799Z,7.72
2018-12-11T13:46:23.395Z,7.63
2018-12-11T13:48:52.953Z,7.63
2018-12-11T13:51:22.672Z,7.53
2018-12-11T13:53:52.277Z,7.44
2018-12-11T13:56:22.124Z,7.34
2018-12-11T13:58:51.946Z,7.33
2018-12-11T14:01:21.524Z,7.30
2018-12-11T14:03:51.509Z,7.25
2018-12-11T14:06:21.129Z,7.02
2018-12-11T14:08:50.679Z,6.79
2018-12-11T14:11:20.266Z,6.64
2018-12-11T14:13:49.799Z,6.53
2018-12-11T14:16:19.452Z,6.45
2018-12-11T14:18:49.190Z,6.27
2018-12-11T14:21:18.868Z,6.21
2018-12-11T14:23:48.646Z,6.15
2018-12-11T14:26:18.182Z,6.03
2018-12-11T14:28:47.719Z,5.91
2018-12-11T14:31:17.561Z,5.88
2018-12-11T14:33:47.418Z,5.75
2018-12-11T14:36:17.113Z,5.72
2018-12-11T14:38:47.120Z,5.62
2018-12-11T14:41:16.940Z,5.56
2018-12-11T14:43:47.452Z,5.54
2018-12-11T14:46:16.922Z,5.44
2018-12-11T14:48:46.614Z,5.41
2018-12-11T14:51:16.119Z,5.43
2018-12-11T14:53:45.994Z,5.34
2018-12-11T14:56:16.711Z,5.30
2018-12-11T14:58:46.539Z,5.20
2018-12-11T15:01:16.050Z,5.08
2018-12-11T15:03:45.637Z,5.10
2018-12-11T15:06:15.265Z,5.10
2018-12-11T15:08:45.307Z,4.99
2018-12-11T15:11:14.909Z,4.90
2018-12-11T15:13:44.417Z,4.82
2018-12-11T15:16:14.434Z,4.84
2018-12-11T15:18:45.307Z,4.82
2018-12-11T15:21:14.902Z,4.93
2018-12-11T15:23:44.474Z,4.82
2018-12-11T15:26:14.255Z,4.85
2018-12-11T15:28:44.265Z,4.71
2018-12-11T15:31:13.804Z,4.89
2018-12-11T15:33:43.335Z,4.82
2018-12-11T15:36:13.943Z,4.93
2018-12-11T15:38:43.772Z,4.84
2018-12-11T15:41:13.706Z,4.81
2018-12-11T15:43:44.498Z,4.76
2018-12-11T15:46:15.017Z,4.72
2018-12-11T15:48:45.271Z,4.68
2018-12-11T15:51:15.249Z,4.58
2018-12-11T15:53:45.135Z,4.48
2018-12-11T15:56:14.771Z,4.33
2018-12-11T15:58:44.295Z,4.32
2018-12-11T16:01:13.857Z,4.13
2018-12-11T16:03:43.362Z,3.83
2018-12-11T16:06:12.845Z,3.87
2018-12-11T16:08:42.591Z,3.89
2018-12-11T16:11:12.319Z,3.90
2018-12-11T16:13:41.945Z,3.80
2018-12-11T16:16:12.293Z,3.90
2018-12-11T16:18:41.940Z,3.89
2018-12-11T16:21:11.482Z,3.87
2018-12-11T16:23:40.908Z,3.85
2018-12-11T16:26:10.488Z,3.97
2018-12-11T16:28:40.525Z,4.03
2018-12-11T16:31:10.005Z,3.97
2018-12-11T16:33:39.542Z,3.97
2018-12-11T16:36:09.391Z,3.94
2018-12-11T16:38:39.047Z,3.93
2018-12-11T16:41:08.489Z,3.90
2018-12-11T16:43:38.090Z,3.81
2018-12-11T16:46:07.786Z,3.65
2018-12-11T16:48:37.796Z,3.60
2018-12-11T16:51:07.438Z,3.51
2018-12-11T16:53:37.070Z,3.31
2018-12-11T16:56:07.402Z,3.10
2018-12-11T16:58:37.279Z,2.96
2018-12-11T17:01:07.131Z,2.92
2018-12-11T17:03:36.644Z,2.92
2018-12-11T17:06:06.111Z,3.00
2018-12-11T17:08:35.673Z,3.05
2018-12-11T17:11:05.364Z,3.12
2018-12-11T17:13:35.347Z,3.14
2018-12-11T17:16:04.972Z,3.09
2018-12-11T17:18:34.498Z,3.00
2018-12-11T17:21:04.375Z,2.94
2018-12-11T17:23:34.271Z,2.92
2018-12-11T17:26:03.762Z,3.06
2018-12-11T17:28:33.510Z,3.04
2018-12-11T17:31:03.107Z,2.86
2018-12-11T17:33:32.855Z,2.81
2018-12-11T17:36:02.242Z,2.81
2018-12-11T17:38:31.969Z,2.75
2018-12-11T17:41:01.526Z,2.70
2018-12-11T17:43:31.277Z,2.71
2018-12-11T17:46:00.807Z,2.65
2018-12-11T17:48:30.430Z,2.61
2018-12-11T17:51:00.218Z,2.56
2018-12-11T17:53:30.192Z,2.53
2018-12-11T17:55:59.748Z,2.45
2018-12-11T17:58:29.356Z,2.43
2018-12-11T18:00:58.903Z,2.49
2018-12-11T18:03:28.318Z,2.45
2018-12-11T18:05:57.895Z,2.33
2018-12-11T18:08:27.835Z,2.38
2018-12-11T18:10:57.490Z,2.48
2018-12-11T18:13:27.062Z,2.25
2018-12-11T18:15:56.674Z,2.29
2018-12-11T18:18:26.297Z,2.32
2018-12-11T18:20:55.972Z,2.02
2018-12-11T18:23:25.707Z,2.00
2018-12-11T18:25:55.309Z,2.03
2018-12-11T18:28:25.070Z,1.98
2018-12-11T18:30:54.532Z,1.90
2018-12-11T18:33:24.088Z,1.82
2018-12-11T18:35:53.623Z,1.78
2018-12-11T18:38:23.125Z,1.93
2018-12-11T18:40:52.760Z,2.00
2018-12-11T18:43:22.637Z,2.09
2018-12-11T18:45:52.063Z,2.15
2018-12-11T18:48:21.605Z,2.22
2018-12-11T18:50:51.420Z,2.28
2018-12-11T18:53:20.831Z,2.22
2018-12-11T18:55:50.383Z,2.20
2018-12-11T18:58:20.375Z,2.27
2018-12-11T19:00:49.904Z,2.30
2018-12-11T19:03:20.000Z,2.42
2018-12-11T19:05:49.530Z,2.48
2018-12-11T19:08:19.242Z,2.48
2018-12-11T19:10:48.912Z,2.32
2018-12-11T19:13:18.878Z,2.05
2018-12-11T19:15:49.163Z,2.04
2018-12-11T19:18:18.680Z,2.06
2018-12-11T19:20:48.465Z,1.85
2018-12-11T19:23:27.031Z,1.74
2018-12-11T19:25:56.952Z,1.67
2018-12-11T19:28:26.482Z,1.54
2018-12-11T19:30:56.169Z,1.47
2018-12-11T19:33:25.879Z,1.27
2018-12-11T19:35:55.565Z,1.37
2018-12-11T19:38:25.492Z,1.36
2018-12-11T19:40:55.144Z,1.75
2018-12-11T19:43:24.833Z,1.71
2018-12-11T19:45:55.193Z,1.59
2018-12-11T19:48:24.853Z,1.64
2018-12-11T19:50:54.253Z,1.66
2018-12-11T19:53:23.740Z,1.59
2018-12-11T19:55:53.282Z,1.54
2018-12-11T19:58:23.087Z,1.60
2018-12-11T20:00:52.908Z,1.70
2018-12-11T20:03:22.696Z,1.58
2018-12-11T20:05:52.529Z,1.38
2018-12-11T20:08:22.272Z,1.28
2018-12-11T20:10:56.453Z,1.27
2018-12-11T20:13:25.987Z,1.31
2018-12-11T20:15:55.515Z,1.38
2018-12-11T20:18:25.383Z,1.37
2018-12-11T20:20:56.712Z,1.04
2018-12-11T20:23:26.230Z,0.92
2018-12-11T20:25:55.671Z,0.90
2018-12-11T20:28:26.341Z,1.02
2018-12-11T20:30:56.070Z,1.02
2018-12-11T20:33:26.388Z,0.91
2018-12-11T20:35:56.615Z,0.77
2018-12-11T20:38:26.729Z,0.78
2018-12-11T20:40:56.310Z,0.42
2018-12-11T20:43:26.298Z,0.44
2018-12-11T20:45:56.154Z,0.30
2018-12-11T20:48:26.379Z,0.29
2018-12-11T20:50:56.978Z,0.12
2018-12-11T20:53:26.540Z,0.12
2018-12-11T20:55:56.456Z,0.08
2018-12-11T20:58:26.278Z,0.21
2018-12-11T21:00:56.120Z,0.12
2018-12-11T21:03:26.117Z,0.29
2018-12-11T21:05:56.022Z,0.25
2018-12-11T21:08:28.007Z,0.07
2018-12-11T21:10:58.205Z,0.21
2018-12-11T21:13:28.094Z,0.15
2018-12-11T21:15:57.961Z,0.15
2018-12-11T21:18:27.577Z,0.07
2018-12-11T21:20:57.621Z,0.06
2018-12-11T21:23:27.306Z,0.16
2018-12-11T21:25:57.125Z,0.36
2018-12-11T21:28:27.301Z,0.32
2018-12-11T21:30:56.949Z,0.35
2018-12-11T21:33:27.008Z,0.48
2018-12-11T21:35:56.773Z,0.21
2018-12-11T21:38:26.544Z,0.28
2018-12-11T21:40:56.648Z,0.36
2018-12-11T21:43:26.717Z,0.53
2018-12-11T21:45:56.862Z,0.48
2018-12-11T21:48:27.345Z,0.47
2018-12-11T21:50:57.272Z,0.45
2018-12-11T21:53:28.190Z,0.50
2018-12-11T21:55:59.596Z,0.51
2018-12-11T21:58:30.118Z,0.43
2018-12-11T22:01:05.970Z,0.48
2018-12-11T22:03:37.726Z,0.44
2018-12-11T22:06:10.658Z,0.33
2018-12-11T22:08:42.591Z,0.22
2018-12-11T22:11:20.864Z,0.56
2018-12-11T22:14:06.467Z,0.44
2018-12-11T22:16:39.009Z,0.31
2018-12-11T22:19:16.739Z,0.01
2018-12-11T22:21:54.613Z,-0.08
2018-12-11T22:24:24.401Z,-0.16
2018-12-11T22:26:53.994Z,-0.20
2018-12-11T22:29:23.712Z,-0.34
2018-12-11T22:31:53.615Z,-0.40
2018-12-11T22:34:23.356Z,-0.49
2018-12-11T22:36:53.130Z,-0.50
2018-12-11T22:39:23.801Z,-0.62
2018-12-11T22:41:53.875Z,-0.67
2018-12-11T22:44:23.415Z,-0.69
2018-12-11T22:46:53.011Z,-0.70
2018-12-11T22:49:23.108Z,-0.78
2018-12-11T22:51:53.168Z,-0.98
2018-12-11T22:54:23.182Z,-0.94
2018-12-11T22:56:53.127Z,-0.96
2018-12-11T22:59:22.940Z,-1.01
2018-12-11T23:01:52.837Z,-1.07
2018-12-11T23:04:22.596Z,-1.07
2018-12-11T23:06:52.947Z,-1.10
2018-12-11T23:09:22.634Z,-1.22
2018-12-11T23:11:52.611Z,-1.19
2018-12-11T23:14:25.288Z,-1.15
2018-12-11T23:16:54.952Z,-1.05
2018-12-11T23:19:24.932Z,-1.13
2018-12-11T23:21:54.929Z,-1.13
2018-12-11T23:24:24.917Z,-1.17
2018-12-11T23:26:55.037Z,-1.10
2018-12-11T23:29:25.443Z,-1.33
2018-12-11T23:31:55.293Z,-1.19
2018-12-11T23:34:25.212Z,-1.33
2018-12-11T23:36:55.005Z,-1.08
2018-12-11T23:39:24.792Z,-1.20
2018-12-11T23:41:54.777Z,-1.15
2018-12-11T23:44:24.620Z,-1.00
2018-12-11T23:46:54.720Z,-1.13
2018-12-11T23:49:24.505Z,-1.20
2018-12-11T23:51:54.220Z,-1.17
2018-12-11T23:54:24.145Z,-1.33
2018-12-11T23:56:53.905Z,-1.06
2018-12-11T23:59:28.989Z,-1.17
